createdAt,value
2017-09-17T00:00:18.438Z,21.6
2017-09-17T00:01:26.896Z,21.6
2017-09-17T00:02:34.613Z,21.6
2017-09-17T00:03:42.701Z,21.6
2017-09-17T00:04:50.809Z,21.5
2017-09-17T00:05:58.894Z,21.6
2017-09-17T00:07:06.981Z,21.5
2017-09-17T00:08:15.070Z,21.5
2017-09-17T00:09:23.157Z,21.5
2017-09-17T00:10:31.242Z,21.6
2017-09-17T00:11:39.330Z,21.5
2017-09-17T00:12:47.415Z,21.5
2017-09-17T00:13:55.504Z,21.5
2017-09-17T00:15:03.591Z,21.6
2017-09-17T00:16:11.683Z,21.5
2017-09-17T00:17:19.771Z,21.6
2017-09-17T00:18:27.859Z,21.5
2017-09-17T00:19:35.943Z,21.5
2017-09-17T00:20:44.032Z,21.5
2017-09-17T00:21:52.126Z,21.5
2017-09-17T00:23:00.215Z,21.5
2017-09-17T00:24:08.305Z,21.4
2017-09-17T00:25:16.388Z,21.5
2017-09-17T00:26:24.476Z,21.5
2017-09-17T00:27:32.573Z,21.4
2017-09-17T00:28:40.657Z,21.4
2017-09-17T00:29:48.745Z,21.5
2017-09-17T00:30:56.832Z,21.5
2017-09-17T00:32:04.924Z,21.4
2017-09-17T00:33:13.006Z,21.4
2017-09-17T00:34:21.093Z,21.4
2017-09-17T00:35:29.185Z,21.5
2017-09-17T00:36:37.273Z,21.4
2017-09-17T00:37:45.353Z,21.4
2017-09-17T00:38:53.440Z,21.4
2017-09-17T00:40:01.533Z,21.3
2017-09-17T00:41:09.619Z,21.4
2017-09-17T00:42:17.704Z,21.4
2017-09-17T00:43:25.789Z,21.4
2017-09-17T00:44:33.877Z,21.3
2017-09-17T00:45:41.962Z,21.3
2017-09-17T00:46:50.050Z,21.4
2017-09-17T00:47:58.148Z,21.4
2017-09-17T00:49:06.231Z,21.3
2017-09-17T00:50:14.311Z,21.3
2017-09-17T00:51:22.397Z,21.4
2017-09-17T00:52:30.485Z,21.4
2017-09-17T00:53:38.571Z,21.3
2017-09-17T00:54:46.658Z,21.4
2017-09-17T00:55:54.745Z,21.3
2017-09-17T00:57:02.832Z,21.4
2017-09-17T00:58:10.922Z,21.3
2017-09-17T00:59:19.006Z,21.3
2017-09-17T01:00:27.092Z,21.3
2017-09-17T01:01:35.181Z,21.3
2017-09-17T01:02:43.266Z,21.3
2017-09-17T01:03:51.352Z,21.3
2017-09-17T01:04:59.451Z,21.2
2017-09-17T01:06:07.543Z,21.2
2017-09-17T01:07:15.633Z,21.2
2017-09-17T01:08:23.716Z,21.3
2017-09-17T01:09:31.803Z,21.2
2017-09-17T01:10:39.890Z,21.3
2017-09-17T01:11:48.003Z,21.2
2017-09-17T01:12:56.062Z,21.3
2017-09-17T01:14:04.149Z,21.2
2017-09-17T01:15:12.236Z,21.1
2017-09-17T01:16:20.325Z,21.2
2017-09-17T01:17:28.410Z,21.2
2017-09-17T01:18:36.498Z,21.2
2017-09-17T01:19:44.584Z,21.2
2017-09-17T01:20:52.672Z,21.2
2017-09-17T01:22:00.756Z,21.1
2017-09-17T01:23:08.845Z,21.2
2017-09-17T01:24:16.939Z,21.2
2017-09-17T01:25:25.025Z,21.1
2017-09-17T01:26:33.104Z,21.2
2017-09-17T01:27:41.202Z,21.1
2017-09-17T01:28:49.293Z,21.1
2017-09-17T01:29:57.375Z,21.2
2017-09-17T01:31:05.476Z,21.1
2017-09-17T01:32:13.547Z,21.1
2017-09-17T01:33:21.636Z,21.0
2017-09-17T01:34:29.727Z,21.0
2017-09-17T01:35:37.807Z,21.1
2017-09-17T01:36:45.896Z,21.1
2017-09-17T01:37:53.983Z,21.1
2017-09-17T01:39:02.063Z,21.1
2017-09-17T01:40:10.154Z,21.1
2017-09-17T01:41:18.241Z,21.0
2017-09-17T01:42:26.329Z,21.1
2017-09-17T01:43:34.417Z,21.0
2017-09-17T01:44:42.501Z,21.1
2017-09-17T01:45:50.588Z,21.0
2017-09-17T01:46:58.675Z,21.1
2017-09-17T01:48:06.762Z,21.0
2017-09-17T01:49:14.852Z,21.0
2017-09-17T01:50:22.934Z,21.0
2017-09-17T01:51:31.020Z,21.0
2017-09-17T01:52:39.106Z,20.9
2017-09-17T01:53:47.193Z,21.0
2017-09-17T01:54:55.279Z,21.1
2017-09-17T01:56:03.367Z,21.0
2017-09-17T01:57:11.462Z,20.9
2017-09-17T01:58:19.539Z,21.0
2017-09-17T01:59:27.625Z,20.9
2017-09-17T02:00:35.711Z,20.9
2017-09-17T02:01:43.799Z,20.9
2017-09-17T02:02:51.908Z,20.9
2017-09-17T02:03:59.998Z,20.9
2017-09-17T02:05:08.085Z,20.9
2017-09-17T02:06:16.175Z,20.9
2017-09-17T02:07:24.259Z,20.9
2017-09-17T02:08:32.381Z,20.9
2017-09-17T02:09:40.433Z,20.9
2017-09-17T02:10:48.528Z,20.9
2017-09-17T02:11:56.616Z,20.9
2017-09-17T02:13:04.702Z,20.9
2017-09-17T02:14:12.791Z,20.8
2017-09-17T02:15:20.910Z,20.8
2017-09-17T02:16:28.969Z,20.8
2017-09-17T02:17:37.047Z,20.8
2017-09-17T02:18:45.135Z,20.9
2017-09-17T02:19:53.227Z,20.8
2017-09-17T02:21:01.306Z,20.8
2017-09-17T02:22:09.391Z,20.9
2017-09-17T02:23:17.478Z,20.8
2017-09-17T02:24:25.571Z,20.8
2017-09-17T02:25:33.653Z,20.9
2017-09-17T02:26:41.739Z,20.9
2017-09-17T02:27:49.826Z,20.8
2017-09-17T02:28:57.913Z,20.9
2017-09-17T02:30:05.999Z,20.7
2017-09-17T02:31:14.084Z,20.7
2017-09-17T02:32:22.171Z,20.7
2017-09-17T02:33:30.256Z,20.8
2017-09-17T02:34:38.433Z,20.8
2017-09-17T02:35:46.514Z,20.7
2017-09-17T02:36:54.601Z,20.8
2017-09-17T02:38:02.688Z,20.7
2017-09-17T02:39:10.784Z,20.7
2017-09-17T02:40:18.859Z,20.7
2017-09-17T02:41:26.946Z,20.7
2017-09-17T02:42:35.033Z,20.7
2017-09-17T02:43:43.124Z,20.7
2017-09-17T02:44:51.322Z,20.7
2017-09-17T02:45:59.292Z,20.7
2017-09-17T02:47:07.619Z,20.7
2017-09-17T02:48:15.705Z,20.6
2017-09-17T02:49:23.801Z,20.7
2017-09-17T02:50:31.886Z,20.7
2017-09-17T02:51:39.974Z,20.6
2017-09-17T02:52:48.057Z,20.7
2017-09-17T02:53:56.142Z,20.6
2017-09-17T02:55:04.230Z,20.6
2017-09-17T02:56:12.315Z,20.5
2017-09-17T02:57:20.402Z,20.6
2017-09-17T02:58:28.487Z,20.5
2017-09-17T02:59:36.577Z,20.5
2017-09-17T03:00:44.661Z,20.5
2017-09-17T03:01:52.743Z,20.5
2017-09-17T03:03:00.831Z,20.5
2017-09-17T03:04:08.925Z,20.5
2017-09-17T03:05:17.004Z,20.5
2017-09-17T03:06:25.090Z,20.5
2017-09-17T03:07:33.190Z,20.5
2017-09-17T03:08:41.275Z,20.5
2017-09-17T03:09:49.358Z,20.4
2017-09-17T03:10:57.440Z,20.5
2017-09-17T03:12:05.544Z,20.5
2017-09-17T03:13:13.611Z,20.3
2017-09-17T03:14:21.699Z,20.4
2017-09-17T03:15:29.786Z,20.3
2017-09-17T03:16:37.871Z,20.4
2017-09-17T03:17:45.959Z,20.4
2017-09-17T03:18:54.045Z,20.5
2017-09-17T03:20:02.129Z,20.4
2017-09-17T03:21:10.212Z,20.4
2017-09-17T03:22:18.300Z,20.5
2017-09-17T03:23:26.386Z,20.4
2017-09-17T03:24:34.607Z,20.4
2017-09-17T03:25:42.693Z,20.3
2017-09-17T03:26:50.779Z,20.4
2017-09-17T03:27:58.863Z,20.3
2017-09-17T03:29:06.954Z,20.4
2017-09-17T03:30:15.051Z,20.4
2017-09-17T03:31:23.121Z,20.3
2017-09-17T03:32:31.209Z,20.3
2017-09-17T03:33:39.294Z,20.3
2017-09-17T03:34:47.380Z,20.2
2017-09-17T03:35:55.466Z,20.2
2017-09-17T03:37:03.553Z,20.3
2017-09-17T03:38:11.638Z,20.2
2017-09-17T03:39:19.726Z,20.3
2017-09-17T03:40:27.808Z,20.2
2017-09-17T03:41:35.894Z,20.2
2017-09-17T03:42:44.009Z,20.2
2017-09-17T03:43:52.069Z,20.2
2017-09-17T03:45:00.167Z,20.2
2017-09-17T03:46:08.241Z,20.2
2017-09-17T03:47:16.326Z,20.2
2017-09-17T03:48:24.410Z,20.2
2017-09-17T03:49:32.497Z,20.1
2017-09-17T03:50:40.582Z,20.2
2017-09-17T03:51:48.668Z,20.1
2017-09-17T03:52:56.756Z,20.1
2017-09-17T03:54:04.840Z,20.1
2017-09-17T03:55:12.932Z,20.2
2017-09-17T03:56:21.012Z,20.2
2017-09-17T03:57:29.098Z,20.1
2017-09-17T03:58:37.182Z,20.1
2017-09-17T03:59:45.268Z,20.1
2017-09-17T04:00:53.356Z,20.1
2017-09-17T04:02:01.440Z,20.1
2017-09-17T04:03:09.532Z,20.2
2017-09-17T04:04:17.613Z,20.1
2017-09-17T04:05:25.699Z,20.0
2017-09-17T04:06:33.791Z,20.1
2017-09-17T04:07:41.868Z,20.1
2017-09-17T04:08:49.963Z,20.1
2017-09-17T04:09:58.050Z,20.1
2017-09-17T04:11:06.134Z,20.0
2017-09-17T04:12:14.299Z,20.0
2017-09-17T04:13:22.309Z,20.0
2017-09-17T04:14:30.393Z,20.0
2017-09-17T04:15:38.478Z,20.0
2017-09-17T04:16:46.584Z,20.0
2017-09-17T04:17:54.670Z,19.9
2017-09-17T04:19:02.760Z,20.0
2017-09-17T04:20:10.844Z,19.9
2017-09-17T04:21:18.928Z,20.0
2017-09-17T04:22:27.016Z,19.9
2017-09-17T04:23:35.101Z,19.9
2017-09-17T04:24:43.195Z,19.9
2017-09-17T04:25:51.276Z,20.0
2017-09-17T04:26:59.358Z,19.9
2017-09-17T04:28:07.444Z,19.9
2017-09-17T04:29:15.529Z,19.9
2017-09-17T04:30:23.614Z,19.9
2017-09-17T04:31:31.698Z,19.9
2017-09-17T04:32:39.784Z,19.8
2017-09-17T04:33:47.869Z,19.9
2017-09-17T04:34:55.966Z,19.8
2017-09-17T04:36:04.050Z,19.9
2017-09-17T04:37:12.138Z,19.8
2017-09-17T04:38:20.220Z,19.7
2017-09-17T04:39:28.304Z,19.7
2017-09-17T04:40:36.389Z,19.7
2017-09-17T04:41:44.477Z,19.8
2017-09-17T04:42:52.567Z,19.8
2017-09-17T04:44:00.649Z,19.7
2017-09-17T04:45:08.735Z,19.7
2017-09-17T04:46:16.818Z,19.7
2017-09-17T04:47:24.903Z,19.7
2017-09-17T04:48:32.990Z,19.7
2017-09-17T04:49:41.074Z,19.7
2017-09-17T04:50:49.185Z,19.7
2017-09-17T04:51:57.268Z,19.6
2017-09-17T04:53:05.386Z,19.7
2017-09-17T04:54:13.441Z,19.7
2017-09-17T04:55:21.525Z,19.7
2017-09-17T04:56:29.615Z,19.6
2017-09-17T04:57:37.696Z,19.6
2017-09-17T04:58:45.814Z,19.6
2017-09-17T04:59:53.868Z,19.6
2017-09-17T05:01:01.953Z,19.7
2017-09-17T05:02:10.036Z,19.6
2017-09-17T05:03:18.121Z,19.6
2017-09-17T05:04:26.207Z,19.8
2017-09-17T05:05:34.294Z,19.6
2017-09-17T05:06:42.390Z,19.7
2017-09-17T05:07:50.552Z,19.7
2017-09-17T05:08:58.551Z,19.6
2017-09-17T05:10:06.655Z,19.7
2017-09-17T05:11:14.722Z,19.6
2017-09-17T05:12:22.805Z,19.6
2017-09-17T05:13:30.891Z,19.6
2017-09-17T05:14:39.097Z,19.6
2017-09-17T05:15:47.172Z,19.6
2017-09-17T05:16:55.259Z,19.6
2017-09-17T05:18:03.345Z,19.6
2017-09-17T05:19:11.431Z,19.6
2017-09-17T05:20:19.516Z,19.6
2017-09-17T05:21:27.608Z,19.6
2017-09-17T05:22:35.685Z,19.5
2017-09-17T05:23:43.771Z,19.6
2017-09-17T05:24:51.856Z,19.6
2017-09-17T05:25:59.941Z,19.5
2017-09-17T05:27:08.027Z,19.5
2017-09-17T05:28:16.214Z,19.6
2017-09-17T05:29:24.201Z,19.6
2017-09-17T05:30:32.376Z,19.6
2017-09-17T05:31:40.371Z,19.6
2017-09-17T05:32:48.960Z,19.5
2017-09-17T05:33:56.541Z,19.4
2017-09-17T05:35:04.627Z,19.6
2017-09-17T05:36:12.712Z,19.5
2017-09-17T05:37:20.799Z,19.5
2017-09-17T05:38:28.883Z,19.4
2017-09-17T05:39:36.968Z,19.5
2017-09-17T05:40:45.055Z,19.5
2017-09-17T05:41:53.139Z,19.5
2017-09-17T05:43:01.224Z,19.4
2017-09-17T05:44:09.347Z,19.5
2017-09-17T05:45:17.478Z,19.4
2017-09-17T05:46:25.757Z,19.4
2017-09-17T05:47:33.756Z,19.4
2017-09-17T05:48:41.667Z,19.4
2017-09-17T05:49:50.287Z,19.4
2017-09-17T05:50:57.840Z,19.4
2017-09-17T05:52:05.930Z,19.4
2017-09-17T05:53:14.011Z,19.4
2017-09-17T05:54:22.097Z,19.4
2017-09-17T05:55:30.306Z,19.4
2017-09-17T05:56:38.376Z,19.4
2017-09-17T05:57:46.374Z,19.4
2017-09-17T05:58:54.799Z,19.4
2017-09-17T06:00:02.805Z,19.4
2017-09-17T06:01:10.607Z,19.4
2017-09-17T06:02:18.766Z,19.4
2017-09-17T06:03:26.838Z,19.3
2017-09-17T06:04:34.960Z,19.4
2017-09-17T06:05:43.005Z,19.3
2017-09-17T06:06:51.039Z,19.4
2017-09-17T06:07:59.207Z,19.4
2017-09-17T06:09:07.252Z,19.3
2017-09-17T06:10:15.301Z,19.2
2017-09-17T06:11:23.376Z,19.3
2017-09-17T06:12:31.462Z,19.2
2017-09-17T06:13:39.547Z,19.3
2017-09-17T06:14:47.637Z,19.3
2017-09-17T06:15:55.774Z,19.3
2017-09-17T06:17:03.810Z,19.3
2017-09-17T06:18:11.893Z,19.3
2017-09-17T06:19:20.041Z,19.3
2017-09-17T06:20:28.095Z,19.3
2017-09-17T06:21:36.224Z,19.3
2017-09-17T06:22:44.233Z,19.2
2017-09-17T06:23:52.707Z,19.3
2017-09-17T06:25:00.660Z,19.3
2017-09-17T06:26:08.493Z,19.2
2017-09-17T06:27:16.819Z,19.2
2017-09-17T06:28:24.665Z,19.3
2017-09-17T06:29:32.754Z,19.2
2017-09-17T06:30:40.835Z,19.2
2017-09-17T06:31:48.918Z,19.2
2017-09-17T06:32:57.004Z,19.2
2017-09-17T06:34:05.099Z,19.2
2017-09-17T06:35:13.346Z,19.2
2017-09-17T06:36:21.721Z,19.1
2017-09-17T06:37:29.445Z,19.1
2017-09-17T06:38:37.618Z,19.1
2017-09-17T06:39:46.003Z,19.1
2017-09-17T06:40:53.615Z,19.1
2017-09-17T06:42:01.696Z,19.1
2017-09-17T06:43:09.845Z,19.2
2017-09-17T06:44:18.165Z,19.1
2017-09-17T06:45:25.951Z,19.1
2017-09-17T06:46:34.031Z,19.1
2017-09-17T06:47:42.116Z,19.1
2017-09-17T06:48:50.201Z,19.1
2017-09-17T06:49:58.286Z,19.1
2017-09-17T06:51:06.389Z,19.1
2017-09-17T06:52:14.526Z,19.1
2017-09-17T06:53:22.548Z,19.1
2017-09-17T06:54:30.633Z,19.1
2017-09-17T06:55:39.322Z,19.1
2017-09-17T06:56:46.802Z,19.1
2017-09-17T06:57:54.971Z,19.1
2017-09-17T06:59:02.973Z,19.1
2017-09-17T07:00:11.110Z,19.2
2017-09-17T07:01:19.200Z,19.1
2017-09-17T07:02:27.279Z,19.1
2017-09-17T07:03:35.881Z,19.0
2017-09-17T07:04:43.697Z,18.9
2017-09-17T07:05:53.503Z,19.1
2017-09-17T07:06:59.619Z,19.0
2017-09-17T07:08:07.765Z,19.0
2017-09-17T07:09:15.910Z,19.0
2017-09-17T07:10:23.876Z,19.1
2017-09-17T07:11:32.070Z,19.1
2017-09-17T07:12:40.082Z,18.9
2017-09-17T07:13:48.133Z,19.1
2017-09-17T07:14:56.219Z,19.1
2017-09-17T07:16:04.351Z,19.1
2017-09-17T07:17:12.464Z,19.1
2017-09-17T07:18:20.543Z,19.1
2017-09-17T07:19:28.595Z,19.1
2017-09-17T07:20:36.716Z,18.9
2017-09-17T07:21:44.741Z,18.9
2017-09-17T07:22:52.817Z,19.1
2017-09-17T07:24:00.899Z,18.9
2017-09-17T07:25:08.985Z,19.0
2017-09-17T07:26:17.077Z,18.9
2017-09-17T07:27:25.162Z,19.0
2017-09-17T07:28:33.648Z,18.9
2017-09-17T07:29:41.796Z,19.0
2017-09-17T07:30:49.570Z,18.9
2017-09-17T07:31:57.524Z,18.9
2017-09-17T07:33:05.613Z,18.9
2017-09-17T07:34:13.695Z,19.0
2017-09-17T07:35:22.437Z,18.9
2017-09-17T07:36:29.966Z,18.9
2017-09-17T07:37:38.416Z,19.0
2017-09-17T07:38:46.336Z,18.9
2017-09-17T07:39:54.845Z,18.9
2017-09-17T07:41:02.241Z,18.9
2017-09-17T07:42:10.327Z,18.9
2017-09-17T07:43:18.978Z,19.0
2017-09-17T07:44:26.497Z,19.0
2017-09-17T07:45:34.582Z,18.9
2017-09-17T07:46:42.670Z,19.0
2017-09-17T07:47:50.759Z,18.9
2017-09-17T07:48:59.055Z,19.0
2017-09-17T07:50:06.935Z,18.9
2017-09-17T07:51:15.087Z,18.9
2017-09-17T07:52:23.175Z,18.9
2017-09-17T07:53:31.219Z,19.0
2017-09-17T07:54:39.276Z,18.9
2017-09-17T07:55:47.361Z,18.9
2017-09-17T07:56:55.449Z,18.8
2017-09-17T07:58:03.542Z,18.8
2017-09-17T07:59:11.628Z,18.9
2017-09-17T08:00:19.728Z,18.8
2017-09-17T08:01:27.798Z,18.9
2017-09-17T08:02:35.887Z,18.8
2017-09-17T08:03:43.970Z,18.8
2017-09-17T08:04:52.054Z,18.9
2017-09-17T08:06:00.147Z,18.8
2017-09-17T08:07:08.225Z,18.8
2017-09-17T08:08:16.405Z,18.8
2017-09-17T08:09:24.396Z,18.8
2017-09-17T08:10:32.480Z,18.8
2017-09-17T08:11:40.567Z,18.8
2017-09-17T08:12:48.652Z,18.8
2017-09-17T08:13:56.810Z,18.8
2017-09-17T08:15:04.823Z,18.9
2017-09-17T08:16:12.969Z,18.7
2017-09-17T08:17:21.056Z,18.8
2017-09-17T08:18:29.141Z,18.7
2017-09-17T08:19:37.227Z,18.8
2017-09-17T08:20:45.310Z,18.7
2017-09-17T08:21:53.397Z,18.8
2017-09-17T08:23:01.480Z,18.7
2017-09-17T08:24:09.567Z,18.8
2017-09-17T08:25:17.653Z,18.8
2017-09-17T08:26:25.741Z,18.8
2017-09-17T08:27:33.821Z,18.8
2017-09-17T08:28:41.908Z,18.8
2017-09-17T08:29:49.992Z,18.8
2017-09-17T08:30:58.079Z,18.7
2017-09-17T08:32:06.162Z,18.8
2017-09-17T08:33:14.248Z,18.7
2017-09-17T08:34:22.393Z,18.8
2017-09-17T08:35:30.420Z,18.7
2017-09-17T08:36:38.506Z,18.8
2017-09-17T08:37:46.590Z,18.8
2017-09-17T08:38:54.675Z,18.7
2017-09-17T08:40:02.760Z,18.8
2017-09-17T08:41:10.845Z,18.7
2017-09-17T08:42:18.935Z,18.7
2017-09-17T08:43:27.022Z,18.7
2017-09-17T08:44:35.107Z,18.8
2017-09-17T08:45:43.197Z,18.8
2017-09-17T08:46:51.280Z,18.8
2017-09-17T08:47:59.367Z,18.7
2017-09-17T08:49:07.449Z,18.8
2017-09-17T08:50:15.536Z,18.8
2017-09-17T08:51:23.641Z,18.8
2017-09-17T08:52:31.729Z,18.8
2017-09-17T08:53:39.814Z,18.8
2017-09-17T08:54:47.928Z,18.7
2017-09-17T08:55:55.987Z,18.7
2017-09-17T08:57:04.099Z,18.7
2017-09-17T08:58:12.156Z,18.7
2017-09-17T08:59:20.241Z,18.7
2017-09-17T09:00:28.327Z,18.8
2017-09-17T09:01:36.412Z,18.7
2017-09-17T09:02:44.496Z,18.8
2017-09-17T09:03:52.588Z,18.7
2017-09-17T09:05:00.668Z,18.8
2017-09-17T09:06:08.751Z,18.7
2017-09-17T09:07:16.837Z,18.8
2017-09-17T09:08:24.921Z,18.7
2017-09-17T09:09:33.006Z,18.7
2017-09-17T09:10:41.093Z,18.8
2017-09-17T09:11:49.180Z,18.7
2017-09-17T09:12:57.269Z,18.7
2017-09-17T09:14:05.347Z,18.7
2017-09-17T09:15:13.579Z,18.7
2017-09-17T09:16:21.674Z,18.7
2017-09-17T09:17:29.752Z,18.7
2017-09-17T09:18:37.839Z,18.7
2017-09-17T09:19:45.922Z,18.8
2017-09-17T09:20:54.004Z,18.7
2017-09-17T09:22:02.089Z,18.7
2017-09-17T09:23:10.175Z,18.7
2017-09-17T09:24:18.261Z,18.7
2017-09-17T09:25:26.348Z,18.7
2017-09-17T09:26:34.433Z,18.7
2017-09-17T09:27:42.518Z,18.7
2017-09-17T09:28:50.601Z,18.7
2017-09-17T09:29:58.684Z,18.7
2017-09-17T09:31:06.779Z,18.7
2017-09-17T09:32:14.856Z,18.7
2017-09-17T09:33:22.966Z,18.7
2017-09-17T09:34:31.028Z,18.7
2017-09-17T09:35:39.162Z,18.7
2017-09-17T09:36:47.724Z,18.6
2017-09-17T09:37:55.808Z,18.7
2017-09-17T09:39:03.899Z,18.7
2017-09-17T09:40:11.982Z,18.7
2017-09-17T09:41:20.094Z,18.6
2017-09-17T09:42:28.156Z,18.7
2017-09-17T09:43:36.237Z,18.7
2017-09-17T09:44:44.323Z,18.7
2017-09-17T09:45:52.409Z,18.7
2017-09-17T09:47:00.493Z,18.6
2017-09-17T09:48:08.579Z,18.6
2017-09-17T09:49:16.665Z,18.7
2017-09-17T09:50:24.753Z,18.6
2017-09-17T09:51:32.834Z,18.6
2017-09-17T09:52:40.931Z,18.7
2017-09-17T09:53:49.013Z,18.6
2017-09-17T09:54:57.095Z,18.6
2017-09-17T09:56:05.182Z,18.7
2017-09-17T09:57:13.259Z,18.6
2017-09-17T09:58:21.349Z,18.6
2017-09-17T09:59:29.431Z,18.6
2017-09-17T10:00:37.517Z,18.7
2017-09-17T10:01:45.678Z,18.6
2017-09-17T10:02:53.686Z,18.6
2017-09-17T10:04:01.767Z,18.6
2017-09-17T10:05:09.854Z,18.6
2017-09-17T10:06:17.939Z,18.6
2017-09-17T10:07:26.025Z,18.7
2017-09-17T10:08:34.110Z,18.7
2017-09-17T10:09:42.193Z,18.7
2017-09-17T10:10:50.279Z,18.6
2017-09-17T10:11:58.364Z,18.7
2017-09-17T10:13:06.448Z,18.6
2017-09-17T10:14:14.533Z,18.6
2017-09-17T10:15:22.618Z,18.6
2017-09-17T10:16:30.704Z,18.6
2017-09-17T10:17:38.789Z,18.7
2017-09-17T10:18:46.875Z,18.6
2017-09-17T10:19:54.959Z,18.7
2017-09-17T10:21:03.046Z,18.6
2017-09-17T10:22:11.132Z,18.6
2017-09-17T10:23:19.224Z,18.6
2017-09-17T10:24:27.300Z,18.6
2017-09-17T10:25:35.394Z,18.6
2017-09-17T10:26:43.470Z,18.6
2017-09-17T10:27:51.556Z,18.6
2017-09-17T10:28:59.648Z,18.6
2017-09-17T10:30:07.734Z,18.6
2017-09-17T10:31:15.818Z,18.6
2017-09-17T10:32:23.902Z,18.6
2017-09-17T10:33:31.990Z,18.6
2017-09-17T10:34:40.075Z,18.6
2017-09-17T10:35:48.158Z,18.6
2017-09-17T10:36:56.247Z,18.6
2017-09-17T10:38:04.330Z,18.6
2017-09-17T10:39:12.424Z,18.6
2017-09-17T10:40:20.508Z,18.6
2017-09-17T10:41:28.594Z,18.6
2017-09-17T10:42:36.688Z,18.7
2017-09-17T10:43:44.774Z,18.6
2017-09-17T10:44:52.896Z,18.6
2017-09-17T10:46:00.944Z,18.6
2017-09-17T10:47:09.026Z,18.6
2017-09-17T10:48:17.114Z,18.6
2017-09-17T10:49:25.196Z,18.6
2017-09-17T10:50:33.282Z,18.6
2017-09-17T10:51:41.369Z,18.6
2017-09-17T10:52:49.467Z,18.6
2017-09-17T10:53:57.558Z,18.6
2017-09-17T10:55:05.626Z,18.6
2017-09-17T10:56:13.713Z,18.7
2017-09-17T10:57:21.793Z,18.7
2017-09-17T10:58:29.880Z,18.7
2017-09-17T10:59:38.087Z,18.7
2017-09-17T11:00:46.161Z,18.6
2017-09-17T11:01:54.247Z,18.7
2017-09-17T11:03:02.329Z,18.7
2017-09-17T11:04:10.415Z,18.7
2017-09-17T11:05:18.518Z,18.7
2017-09-17T11:06:26.590Z,18.7
2017-09-17T11:07:34.676Z,18.7
2017-09-17T11:08:42.760Z,18.7
2017-09-17T11:09:50.845Z,18.7
2017-09-17T11:10:58.937Z,18.8
2017-09-17T11:12:07.021Z,18.8
2017-09-17T11:13:15.106Z,18.7
2017-09-17T11:14:23.191Z,18.7
2017-09-17T11:15:31.278Z,18.7
2017-09-17T11:16:39.363Z,18.8
2017-09-17T11:17:47.446Z,18.7
2017-09-17T11:18:55.541Z,18.8
2017-09-17T11:20:03.616Z,18.8
2017-09-17T11:21:11.702Z,18.8
2017-09-17T11:22:19.792Z,18.8
2017-09-17T11:23:27.894Z,18.8
2017-09-17T11:24:35.961Z,18.8
2017-09-17T11:25:44.045Z,18.8
2017-09-17T11:26:52.130Z,18.9
2017-09-17T11:28:00.215Z,18.8
2017-09-17T11:29:08.406Z,18.8
2017-09-17T11:30:16.572Z,18.9
2017-09-17T11:31:24.615Z,18.9
2017-09-17T11:32:32.710Z,18.9
2017-09-17T11:33:41.110Z,18.9
2017-09-17T11:34:49.198Z,18.9
2017-09-17T11:35:57.280Z,18.9
2017-09-17T11:37:05.384Z,19.0
2017-09-17T11:38:13.460Z,18.9
2017-09-17T11:39:21.539Z,19.0
2017-09-17T11:40:29.625Z,19.0
2017-09-17T11:41:37.714Z,19.1
2017-09-17T11:42:45.796Z,19.0
2017-09-17T11:43:53.881Z,19.0
2017-09-17T11:45:01.968Z,19.1
2017-09-17T11:46:10.051Z,19.1
2017-09-17T11:47:18.144Z,19.1
2017-09-17T11:48:26.228Z,19.1
2017-09-17T11:49:34.307Z,19.2
2017-09-17T11:50:42.392Z,19.2
2017-09-17T11:51:50.478Z,19.1
2017-09-17T11:52:58.563Z,19.2
2017-09-17T11:54:06.649Z,19.1
2017-09-17T11:55:14.736Z,19.1
2017-09-17T11:56:22.817Z,19.2
2017-09-17T11:57:30.904Z,19.2
2017-09-17T11:58:38.999Z,19.2
2017-09-17T11:59:47.083Z,19.3
2017-09-17T12:00:55.167Z,19.2
2017-09-17T12:02:03.253Z,19.3
2017-09-17T12:03:11.342Z,19.3
2017-09-17T12:04:19.430Z,19.2
2017-09-17T12:05:27.509Z,19.2
2017-09-17T12:06:35.595Z,19.3
2017-09-17T12:07:43.680Z,19.4
2017-09-17T12:08:51.766Z,19.3
2017-09-17T12:09:59.863Z,19.4
2017-09-17T12:11:07.951Z,19.4
2017-09-17T12:12:16.054Z,19.5
2017-09-17T12:13:24.138Z,19.3
2017-09-17T12:14:32.234Z,19.4
2017-09-17T12:15:40.310Z,19.5
2017-09-17T12:16:48.399Z,19.4
2017-09-17T12:17:56.478Z,19.5
2017-09-17T12:19:04.565Z,19.5
2017-09-17T12:20:12.650Z,19.6
2017-09-17T12:21:20.735Z,19.4
2017-09-17T12:22:28.827Z,19.5
2017-09-17T12:23:36.911Z,19.6
2017-09-17T12:24:44.993Z,19.6
2017-09-17T12:25:53.086Z,19.6
2017-09-17T12:27:01.173Z,19.6
2017-09-17T12:28:09.263Z,19.6
2017-09-17T12:29:17.345Z,19.6
2017-09-17T12:30:25.430Z,19.6
2017-09-17T12:31:33.516Z,19.5
2017-09-17T12:32:41.602Z,19.6
2017-09-17T12:33:49.688Z,19.6
2017-09-17T12:34:57.772Z,19.6
2017-09-17T12:36:05.862Z,19.6
2017-09-17T12:37:13.950Z,19.7
2017-09-17T12:38:22.030Z,19.6
2017-09-17T12:39:30.120Z,19.7
2017-09-17T12:40:38.202Z,19.6
2017-09-17T12:41:46.286Z,19.6
2017-09-17T12:42:54.373Z,19.7
2017-09-17T12:44:02.461Z,19.6
2017-09-17T12:45:10.583Z,19.7
2017-09-17T12:46:18.647Z,19.6
2017-09-17T12:47:26.733Z,19.7
2017-09-17T12:48:34.882Z,19.7
2017-09-17T12:49:42.963Z,19.7
2017-09-17T12:50:51.052Z,19.8
2017-09-17T12:51:59.134Z,19.8
2017-09-17T12:53:07.222Z,19.7
2017-09-17T12:54:15.307Z,19.7
2017-09-17T12:55:23.392Z,19.8
2017-09-17T12:56:31.498Z,19.8
2017-09-17T12:57:39.563Z,19.7
2017-09-17T12:58:47.649Z,19.7
2017-09-17T12:59:55.736Z,19.7
2017-09-17T13:01:03.821Z,19.8
2017-09-17T13:02:11.904Z,19.7
2017-09-17T13:03:19.997Z,19.9
2017-09-17T13:04:28.082Z,19.9
2017-09-17T13:05:36.166Z,19.9
2017-09-17T13:06:44.261Z,19.9
2017-09-17T13:07:52.337Z,19.9
2017-09-17T13:09:00.423Z,19.9
2017-09-17T13:10:08.510Z,19.9
2017-09-17T13:11:16.596Z,19.9
2017-09-17T13:12:24.684Z,19.9
2017-09-17T13:13:32.769Z,19.9
2017-09-17T13:14:40.855Z,20.0
2017-09-17T13:15:48.939Z,20.0
2017-09-17T13:16:57.026Z,20.0
2017-09-17T13:18:05.111Z,19.9
2017-09-17T13:19:13.197Z,19.9
2017-09-17T13:20:21.285Z,20.0
2017-09-17T13:21:29.376Z,20.0
2017-09-17T13:22:37.456Z,20.0
2017-09-17T13:23:45.546Z,20.0
2017-09-17T13:24:53.634Z,20.0
2017-09-17T13:26:01.716Z,20.0
2017-09-17T13:27:09.802Z,20.1
2017-09-17T13:28:17.888Z,20.0
2017-09-17T13:29:25.975Z,20.1
2017-09-17T13:30:34.070Z,20.0
2017-09-17T13:31:42.153Z,20.0
2017-09-17T13:32:50.239Z,20.1
2017-09-17T13:33:58.322Z,20.1
2017-09-17T13:35:06.423Z,20.1
2017-09-17T13:36:14.501Z,20.1
2017-09-17T13:37:22.583Z,20.1
2017-09-17T13:38:30.679Z,20.1
2017-09-17T13:39:38.769Z,20.1
2017-09-17T13:40:46.849Z,20.1
2017-09-17T13:41:54.936Z,20.0
2017-09-17T13:43:03.021Z,20.0
2017-09-17T13:44:11.106Z,20.1
2017-09-17T13:45:19.197Z,20.1
2017-09-17T13:46:27.282Z,20.1
2017-09-17T13:47:35.365Z,20.1
2017-09-17T13:48:43.452Z,20.1
2017-09-17T13:49:51.536Z,20.1
2017-09-17T13:50:59.803Z,20.1
2017-09-17T13:52:07.891Z,20.2
2017-09-17T13:53:15.978Z,20.2
2017-09-17T13:54:24.061Z,20.1
2017-09-17T13:55:32.151Z,20.1
2017-09-17T13:56:40.235Z,20.2
2017-09-17T13:57:48.322Z,20.2
2017-09-17T13:58:56.406Z,20.2
2017-09-17T14:00:04.492Z,20.2
2017-09-17T14:01:12.579Z,20.2
2017-09-17T14:02:20.667Z,20.2
2017-09-17T14:03:28.751Z,20.2
2017-09-17T14:04:36.839Z,20.1
2017-09-17T14:05:44.925Z,20.2
2017-09-17T14:06:53.066Z,20.2
2017-09-17T14:08:01.100Z,20.2
2017-09-17T14:09:09.184Z,20.2
2017-09-17T14:10:17.289Z,20.2
2017-09-17T14:11:25.358Z,20.2
2017-09-17T14:12:33.447Z,20.2
2017-09-17T14:13:41.530Z,20.3
2017-09-17T14:14:49.617Z,20.2
2017-09-17T14:15:57.703Z,20.2
2017-09-17T14:17:05.794Z,20.2
2017-09-17T14:18:13.876Z,20.2
2017-09-17T14:19:21.960Z,20.3
2017-09-17T14:20:30.055Z,20.2
2017-09-17T14:21:38.142Z,20.3
2017-09-17T14:22:46.232Z,20.2
2017-09-17T14:23:54.313Z,20.2
2017-09-17T14:25:02.406Z,20.2
2017-09-17T14:26:10.486Z,20.2
2017-09-17T14:27:18.570Z,20.2
2017-09-17T14:28:26.670Z,20.3
2017-09-17T14:29:34.750Z,20.2
2017-09-17T14:30:42.837Z,20.2
2017-09-17T14:31:50.924Z,20.3
2017-09-17T14:32:59.010Z,20.3
2017-09-17T14:34:07.099Z,20.3
2017-09-17T14:35:15.179Z,20.2
2017-09-17T14:36:23.268Z,20.3
2017-09-17T14:37:31.354Z,20.3
2017-09-17T14:38:39.439Z,20.2
2017-09-17T14:39:47.535Z,20.1
2017-09-17T14:40:55.632Z,20.2
2017-09-17T14:42:03.716Z,20.2
2017-09-17T14:43:11.802Z,20.2
2017-09-17T14:44:19.888Z,20.2
2017-09-17T14:45:27.975Z,20.3
2017-09-17T14:46:36.067Z,20.2
2017-09-17T14:47:44.149Z,20.3
2017-09-17T14:48:52.234Z,20.2
2017-09-17T14:50:00.321Z,20.2
2017-09-17T14:51:08.406Z,20.1
2017-09-17T14:52:16.493Z,20.2
2017-09-17T14:53:24.580Z,20.3
2017-09-17T14:54:32.666Z,20.3
2017-09-17T14:55:40.763Z,20.2
2017-09-17T14:56:48.842Z,20.2
2017-09-17T14:57:56.929Z,20.2
2017-09-17T14:59:05.032Z,20.2
2017-09-17T15:00:13.098Z,20.3
2017-09-17T15:01:21.196Z,20.2
2017-09-17T15:02:29.273Z,20.2
2017-09-17T15:03:37.360Z,20.3
2017-09-17T15:04:45.443Z,20.3
2017-09-17T15:05:53.535Z,20.2